Terminal Aerodrome Forecast
Issued by NWS Memphis, TN

Home | Current Version | Previous Version | Text Only | Print | Product List | Glossary On
Versions: 1 2 3 4 5 6 7 8 9 10 11 12 13
000
FTUS44 KMEG 050520
TAFJBR
TAF
KJBR 050520Z 0506/0606 VRB02KT P6SM SCT250
      TEMPO 0510/0512 5SM BR
     FM051500 12005KT P6SM SCT040
     FM060000 VRB02KT P6SM SCT250=

USA.gov is the U.S. government's official web portal to all federal, state and local government web resources and services.